sensor_id;sensor_type;location;lat;lon;timestamp;P1;durP1;ratioP1;P2;durP2;ratioP2
24995;SDS011;13016;52.162;21.034;2022-12-04T00:01:59;50.60;;;21.90;;
24995;SDS011;13016;52.162;21.034;2022-12-04T00:04:24;45.40;;;21.20;;
24995;SDS011;13016;52.162;21.034;2022-12-04T00:06:49;47.80;;;20.90;;
24995;SDS011;13016;52.162;21.034;2022-12-04T00:09:14;57.00;;;22.50;;
24995;SDS011;13016;52.162;21.034;2022-12-04T00:11:40;46.10;;;21.80;;
24995;SDS011;13016;52.162;21.034;2022-12-04T00:14:05;47.00;;;20.30;;
24995;SDS011;13016;52.162;21.034;2022-12-04T00:16:30;46.50;;;20.60;;
24995;SDS011;13016;52.162;21.034;2022-12-04T00:18:56;48.40;;;21.40;;
24995;SDS011;13016;52.162;21.034;2022-12-04T00:21:22;53.80;;;22.60;;
24995;SDS011;13016;52.162;21.034;2022-12-04T00:23:49;47.40;;;21.80;;
24995;SDS011;13016;52.162;21.034;2022-12-04T00:26:16;47.60;;;22.20;;
24995;SDS011;13016;52.162;21.034;2022-12-04T00:28:43;55.50;;;23.80;;
24995;SDS011;13016;52.162;21.034;2022-12-04T00:31:12;41.50;;;19.70;;
24995;SDS011;13016;52.162;21.034;2022-12-04T00:33:40;45.90;;;21.60;;
24995;SDS011;13016;52.162;21.034;2022-12-04T00:36:07;43.80;;;19.70;;
24995;SDS011;13016;52.162;21.034;2022-12-04T00:38:35;44.80;;;20.30;;
24995;SDS011;13016;52.162;21.034;2022-12-04T00:41:02;44.20;;;20.60;;
24995;SDS011;13016;52.162;21.034;2022-12-04T00:43:31;47.10;;;20.30;;
24995;SDS011;13016;52.162;21.034;2022-12-04T00:45:57;44.00;;;19.90;;
24995;SDS011;13016;52.162;21.034;2022-12-04T00:48:25;41.70;;;20.70;;
24995;SDS011;13016;52.162;21.034;2022-12-04T00:50:51;37.50;;;19.30;;
24995;SDS011;13016;52.162;21.034;2022-12-04T00:53:16;44.40;;;20.20;;
24995;SDS011;13016;52.162;21.034;2022-12-04T00:55:43;40.40;;;19.50;;
24995;SDS011;13016;52.162;21.034;2022-12-04T00:58:12;42.40;;;19.30;;
24995;SDS011;13016;52.162;21.034;2022-12-04T01:00:38;40.00;;;20.20;;
24995;SDS011;13016;52.162;21.034;2022-12-04T01:03:06;42.00;;;19.80;;
24995;SDS011;13016;52.162;21.034;2022-12-04T01:05:42;39.50;;;20.40;;
24995;SDS011;13016;52.162;21.034;2022-12-04T01:08:11;44.40;;;19.50;;
24995;SDS011;13016;52.162;21.034;2022-12-04T01:10:38;44.10;;;19.70;;
24995;SDS011;13016;52.162;21.034;2022-12-04T01:13:04;39.50;;;19.60;;
24995;SDS011;13016;52.162;21.034;2022-12-04T01:15:36;38.20;;;19.30;;
24995;SDS011;13016;52.162;21.034;2022-12-04T01:18:03;41.50;;;18.70;;
24995;SDS011;13016;52.162;21.034;2022-12-04T01:20:28;39.80;;;18.60;;
24995;SDS011;13016;52.162;21.034;2022-12-04T01:22:56;41.10;;;19.80;;
24995;SDS011;13016;52.162;21.034;2022-12-04T01:25:21;38.50;;;18.70;;
24995;SDS011;13016;52.162;21.034;2022-12-04T01:27:46;37.90;;;19.00;;
24995;SDS011;13016;52.162;21.034;2022-12-04T01:30:12;40.40;;;19.20;;
24995;SDS011;13016;52.162;21.034;2022-12-04T01:32:37;36.10;;;18.20;;
24995;SDS011;13016;52.162;21.034;2022-12-04T01:35:03;38.60;;;18.50;;
24995;SDS011;13016;52.162;21.034;2022-12-04T01:37:29;42.00;;;18.90;;
24995;SDS011;13016;52.162;21.034;2022-12-04T01:39:55;36.50;;;17.80;;
24995;SDS011;13016;52.162;21.034;2022-12-04T01:42:20;39.50;;;19.40;;
24995;SDS011;13016;52.162;21.034;2022-12-04T01:47:48;40.40;;;18.70;;
24995;SDS011;13016;52.162;21.034;2022-12-04T01:50:16;40.70;;;18.50;;
24995;SDS011;13016;52.162;21.034;2022-12-04T01:52:41;37.50;;;17.70;;
24995;SDS011;13016;52.162;21.034;2022-12-04T01:55:07;44.90;;;19.30;;
24995;SDS011;13016;52.162;21.034;2022-12-04T01:57:32;39.60;;;19.00;;
24995;SDS011;13016;52.162;21.034;2022-12-04T01:59:59;45.60;;;20.90;;
24995;SDS011;13016;52.162;21.034;2022-12-04T02:02:31;44.10;;;20.00;;
24995;SDS011;13016;52.162;21.034;2022-12-04T02:04:59;43.40;;;19.50;;
24995;SDS011;13016;52.162;21.034;2022-12-04T02:07:26;45.60;;;19.30;;
24995;SDS011;13016;52.162;21.034;2022-12-04T02:09:52;43.20;;;18.80;;
24995;SDS011;13016;52.162;21.034;2022-12-04T02:12:28;40.60;;;19.00;;
24995;SDS011;13016;52.162;21.034;2022-12-04T02:15:08;38.00;;;17.80;;
24995;SDS011;13016;52.162;21.034;2022-12-04T02:17:58;40.20;;;18.60;;
24995;SDS011;13016;52.162;21.034;2022-12-04T02:28:48;37.20;;;17.50;;
24995;SDS011;13016;52.162;21.034;2022-12-04T02:31:26;34.10;;;16.50;;
24995;SDS011;13016;52.162;21.034;2022-12-04T02:34:15;39.10;;;17.90;;
24995;SDS011;13016;52.162;21.034;2022-12-04T02:36:49;40.90;;;18.40;;
24995;SDS011;13016;52.162;21.034;2022-12-04T02:42:05;42.30;;;18.20;;
24995;SDS011;13016;52.162;21.034;2022-12-04T02:44:41;39.90;;;18.60;;
24995;SDS011;13016;52.162;21.034;2022-12-04T02:47:11;45.10;;;18.70;;
24995;SDS011;13016;52.162;21.034;2022-12-04T02:49:43;42.70;;;19.20;;
24995;SDS011;13016;52.162;21.034;2022-12-04T02:52:12;41.70;;;18.60;;
24995;SDS011;13016;52.162;21.034;2022-12-04T02:54:41;40.00;;;19.50;;
24995;SDS011;13016;52.162;21.034;2022-12-04T02:57:13;42.40;;;18.70;;
24995;SDS011;13016;52.162;21.034;2022-12-04T02:59:44;40.50;;;18.90;;
24995;SDS011;13016;52.162;21.034;2022-12-04T03:02:35;40.30;;;18.70;;
24995;SDS011;13016;52.162;21.034;2022-12-04T03:05:03;38.20;;;18.30;;
24995;SDS011;13016;52.162;21.034;2022-12-04T03:07:36;38.70;;;17.80;;
24995;SDS011;13016;52.162;21.034;2022-12-04T03:10:08;37.30;;;17.40;;
24995;SDS011;13016;52.162;21.034;2022-12-04T03:12:57;43.30;;;18.30;;
24995;SDS011;13016;52.162;21.034;2022-12-04T03:15:36;43.60;;;17.60;;
24995;SDS011;13016;52.162;21.034;2022-12-04T03:18:17;38.70;;;17.80;;
24995;SDS011;13016;52.162;21.034;2022-12-04T03:20:48;34.20;;;16.20;;
24995;SDS011;13016;52.162;21.034;2022-12-04T03:23:17;39.90;;;17.20;;
24995;SDS011;13016;52.162;21.034;2022-12-04T03:25:55;34.20;;;16.40;;
24995;SDS011;13016;52.162;21.034;2022-12-04T03:28:32;32.60;;;16.40;;
24995;SDS011;13016;52.162;21.034;2022-12-04T03:31:05;32.70;;;15.90;;
24995;SDS011;13016;52.162;21.034;2022-12-04T03:33:36;35.40;;;17.40;;
24995;SDS011;13016;52.162;21.034;2022-12-04T03:36:07;35.80;;;15.70;;
24995;SDS011;13016;52.162;21.034;2022-12-04T03:44:15;36.70;;;17.70;;
24995;SDS011;13016;52.162;21.034;2022-12-04T03:46:56;39.60;;;17.20;;
24995;SDS011;13016;52.162;21.034;2022-12-04T03:52:39;33.50;;;16.70;;
24995;SDS011;13016;52.162;21.034;2022-12-04T03:55:22;33.60;;;16.30;;
24995;SDS011;13016;52.162;21.034;2022-12-04T03:58:10;35.30;;;16.50;;
24995;SDS011;13016;52.162;21.034;2022-12-04T04:00:40;33.20;;;15.30;;
24995;SDS011;13016;52.162;21.034;2022-12-04T04:03:12;35.30;;;15.90;;
24995;SDS011;13016;52.162;21.034;2022-12-04T04:05:43;30.20;;;14.90;;
24995;SDS011;13016;52.162;21.034;2022-12-04T04:08:13;32.70;;;14.60;;
24995;SDS011;13016;52.162;21.034;2022-12-04T04:10:42;30.60;;;16.30;;
24995;SDS011;13016;52.162;21.034;2022-12-04T04:13:10;34.20;;;15.90;;
24995;SDS011;13016;52.162;21.034;2022-12-04T04:15:40;30.80;;;15.20;;
24995;SDS011;13016;52.162;21.034;2022-12-04T04:18:10;33.20;;;16.40;;
24995;SDS011;13016;52.162;21.034;2022-12-04T04:20:37;31.10;;;15.00;;
24995;SDS011;13016;52.162;21.034;2022-12-04T04:23:08;30.90;;;15.20;;
24995;SDS011;13016;52.162;21.034;2022-12-04T04:25:36;29.50;;;15.00;;
24995;SDS011;13016;52.162;21.034;2022-12-04T04:28:25;37.70;;;16.40;;
24995;SDS011;13016;52.162;21.034;2022-12-04T04:30:55;30.10;;;14.80;;
24995;SDS011;13016;52.162;21.034;2022-12-04T04:33:38;29.20;;;14.60;;
24995;SDS011;13016;52.162;21.034;2022-12-04T04:36:22;27.80;;;14.60;;
24995;SDS011;13016;52.162;21.034;2022-12-04T04:39:07;29.90;;;14.60;;
24995;SDS011;13016;52.162;21.034;2022-12-04T04:41:48;35.40;;;14.40;;
24995;SDS011;13016;52.162;21.034;2022-12-04T04:44:52;29.90;;;14.30;;
24995;SDS011;13016;52.162;21.034;2022-12-04T04:47:41;23.90;;;12.80;;
24995;SDS011;13016;52.162;21.034;2022-12-04T04:50:03;30.30;;;14.70;;
24995;SDS011;13016;52.162;21.034;2022-12-04T04:52:32;28.10;;;14.80;;
24995;SDS011;13016;52.162;21.034;2022-12-04T04:54:59;26.20;;;13.70;;
24995;SDS011;13016;52.162;21.034;2022-12-04T04:57:27;29.30;;;14.40;;
24995;SDS011;13016;52.162;21.034;2022-12-04T04:59:53;29.00;;;13.40;;
24995;SDS011;13016;52.162;21.034;2022-12-04T05:02:19;26.90;;;14.20;;
24995;SDS011;13016;52.162;21.034;2022-12-04T05:04:44;31.40;;;14.30;;
24995;SDS011;13016;52.162;21.034;2022-12-04T05:07:10;28.20;;;14.40;;
24995;SDS011;13016;52.162;21.034;2022-12-04T05:09:35;29.80;;;14.00;;
24995;SDS011;13016;52.162;21.034;2022-12-04T05:12:00;33.40;;;15.00;;
24995;SDS011;13016;52.162;21.034;2022-12-04T05:14:25;30.40;;;14.60;;
24995;SDS011;13016;52.162;21.034;2022-12-04T05:16:51;28.40;;;13.80;;
24995;SDS011;13016;52.162;21.034;2022-12-04T05:19:16;35.80;;;15.80;;
24995;SDS011;13016;52.162;21.034;2022-12-04T05:21:41;30.60;;;15.00;;
24995;SDS011;13016;52.162;21.034;2022-12-04T05:24:07;28.40;;;14.30;;
24995;SDS011;13016;52.162;21.034;2022-12-04T05:26:32;26.10;;;13.50;;
24995;SDS011;13016;52.162;21.034;2022-12-04T05:28:58;32.80;;;14.60;;
24995;SDS011;13016;52.162;21.034;2022-12-04T05:31:23;29.70;;;14.60;;
24995;SDS011;13016;52.162;21.034;2022-12-04T05:33:48;28.20;;;14.40;;
24995;SDS011;13016;52.162;21.034;2022-12-04T05:36:13;29.50;;;15.10;;
24995;SDS011;13016;52.162;21.034;2022-12-04T05:38:39;30.10;;;14.40;;
24995;SDS011;13016;52.162;21.034;2022-12-04T05:41:05;27.80;;;14.30;;
24995;SDS011;13016;52.162;21.034;2022-12-04T05:43:32;33.90;;;16.00;;
24995;SDS011;13016;52.162;21.034;2022-12-04T05:46:02;31.90;;;15.80;;
24995;SDS011;13016;52.162;21.034;2022-12-04T05:48:52;36.10;;;17.40;;
24995;SDS011;13016;52.162;21.034;2022-12-04T05:51:17;31.60;;;16.10;;
24995;SDS011;13016;52.162;21.034;2022-12-04T05:53:42;33.80;;;17.20;;
24995;SDS011;13016;52.162;21.034;2022-12-04T05:56:07;33.10;;;15.90;;
24995;SDS011;13016;52.162;21.034;2022-12-04T05:58:34;34.50;;;16.30;;
24995;SDS011;13016;52.162;21.034;2022-12-04T06:01:00;33.60;;;16.30;;
24995;SDS011;13016;52.162;21.034;2022-12-04T06:03:31;32.90;;;15.00;;
24995;SDS011;13016;52.162;21.034;2022-12-04T06:05:57;32.10;;;15.50;;
24995;SDS011;13016;52.162;21.034;2022-12-04T06:08:22;31.00;;;14.90;;
24995;SDS011;13016;52.162;21.034;2022-12-04T06:10:47;32.80;;;15.60;;
24995;SDS011;13016;52.162;21.034;2022-12-04T06:13:12;30.10;;;15.30;;
24995;SDS011;13016;52.162;21.034;2022-12-04T06:15:38;31.70;;;15.40;;
24995;SDS011;13016;52.162;21.034;2022-12-04T06:18:04;29.70;;;15.20;;
24995;SDS011;13016;52.162;21.034;2022-12-04T06:20:29;25.90;;;13.90;;
24995;SDS011;13016;52.162;21.034;2022-12-04T06:22:55;30.30;;;14.60;;
24995;SDS011;13016;52.162;21.034;2022-12-04T06:25:20;31.10;;;14.70;;
24995;SDS011;13016;52.162;21.034;2022-12-04T06:27:45;26.20;;;14.10;;
24995;SDS011;13016;52.162;21.034;2022-12-04T06:30:11;28.50;;;14.10;;
24995;SDS011;13016;52.162;21.034;2022-12-04T06:32:36;30.70;;;14.00;;
24995;SDS011;13016;52.162;21.034;2022-12-04T06:35:01;28.50;;;14.70;;
24995;SDS011;13016;52.162;21.034;2022-12-04T06:37:27;29.80;;;15.30;;
24995;SDS011;13016;52.162;21.034;2022-12-04T06:39:52;29.90;;;14.80;;
24995;SDS011;13016;52.162;21.034;2022-12-04T06:42:17;27.00;;;14.60;;
24995;SDS011;13016;52.162;21.034;2022-12-04T06:44:43;30.10;;;14.40;;
24995;SDS011;13016;52.162;21.034;2022-12-04T06:47:08;29.00;;;14.80;;
24995;SDS011;13016;52.162;21.034;2022-12-04T06:49:33;28.40;;;14.60;;
24995;SDS011;13016;52.162;21.034;2022-12-04T06:51:59;27.00;;;13.70;;
24995;SDS011;13016;52.162;21.034;2022-12-04T06:54:24;27.10;;;13.50;;
24995;SDS011;13016;52.162;21.034;2022-12-04T06:56:49;30.90;;;14.40;;
24995;SDS011;13016;52.162;21.034;2022-12-04T06:59:14;29.20;;;15.00;;
24995;SDS011;13016;52.162;21.034;2022-12-04T07:01:40;30.20;;;15.30;;
24995;SDS011;13016;52.162;21.034;2022-12-04T07:04:05;29.90;;;14.80;;
24995;SDS011;13016;52.162;21.034;2022-12-04T07:06:32;28.30;;;15.00;;
24995;SDS011;13016;52.162;21.034;2022-12-04T07:09:00;28.70;;;14.50;;
24995;SDS011;13016;52.162;21.034;2022-12-04T07:11:30;28.40;;;14.00;;
24995;SDS011;13016;52.162;21.034;2022-12-04T07:13:55;32.30;;;14.80;;
24995;SDS011;13016;52.162;21.034;2022-12-04T07:16:21;28.10;;;14.50;;
24995;SDS011;13016;52.162;21.034;2022-12-04T07:18:48;26.30;;;14.10;;
24995;SDS011;13016;52.162;21.034;2022-12-04T07:21:15;30.00;;;14.80;;
24995;SDS011;13016;52.162;21.034;2022-12-04T07:23:42;26.70;;;14.30;;
24995;SDS011;13016;52.162;21.034;2022-12-04T07:26:09;29.80;;;14.90;;
24995;SDS011;13016;52.162;21.034;2022-12-04T07:28:36;28.80;;;14.90;;
24995;SDS011;13016;52.162;21.034;2022-12-04T07:31:05;28.40;;;14.40;;
24995;SDS011;13016;52.162;21.034;2022-12-04T07:33:32;28.30;;;15.50;;
24995;SDS011;13016;52.162;21.034;2022-12-04T07:35:58;24.60;;;13.40;;
24995;SDS011;13016;52.162;21.034;2022-12-04T07:38:25;26.30;;;14.60;;
24995;SDS011;13016;52.162;21.034;2022-12-04T07:40:51;23.20;;;13.00;;
24995;SDS011;13016;52.162;21.034;2022-12-04T07:43:20;27.40;;;14.40;;
24995;SDS011;13016;52.162;21.034;2022-12-04T07:45:45;25.30;;;13.60;;
24995;SDS011;13016;52.162;21.034;2022-12-04T07:48:10;28.80;;;14.60;;
24995;SDS011;13016;52.162;21.034;2022-12-04T07:50:35;31.30;;;13.70;;
24995;SDS011;13016;52.162;21.034;2022-12-04T07:53:01;23.70;;;13.30;;
24995;SDS011;13016;52.162;21.034;2022-12-04T07:55:26;23.10;;;14.20;;
24995;SDS011;13016;52.162;21.034;2022-12-04T07:57:51;25.40;;;13.10;;
24995;SDS011;13016;52.162;21.034;2022-12-04T08:00:17;25.50;;;14.00;;
24995;SDS011;13016;52.162;21.034;2022-12-04T08:02:42;26.80;;;14.30;;
24995;SDS011;13016;52.162;21.034;2022-12-04T08:05:08;25.10;;;13.80;;
24995;SDS011;13016;52.162;21.034;2022-12-04T08:07:33;25.80;;;14.10;;
24995;SDS011;13016;52.162;21.034;2022-12-04T08:09:58;25.30;;;14.00;;
24995;SDS011;13016;52.162;21.034;2022-12-04T08:12:23;23.20;;;12.40;;
24995;SDS011;13016;52.162;21.034;2022-12-04T08:14:49;25.20;;;13.40;;
24995;SDS011;13016;52.162;21.034;2022-12-04T08:17:14;23.30;;;13.00;;
24995;SDS011;13016;52.162;21.034;2022-12-04T08:19:40;24.00;;;13.00;;
24995;SDS011;13016;52.162;21.034;2022-12-04T08:22:05;23.20;;;13.40;;
24995;SDS011;13016;52.162;21.034;2022-12-04T08:24:30;25.20;;;14.10;;
24995;SDS011;13016;52.162;21.034;2022-12-04T08:26:56;25.00;;;13.80;;
24995;SDS011;13016;52.162;21.034;2022-12-04T08:29:21;23.60;;;13.80;;
24995;SDS011;13016;52.162;21.034;2022-12-04T08:31:46;25.50;;;13.60;;
24995;SDS011;13016;52.162;21.034;2022-12-04T08:34:11;24.60;;;13.60;;
24995;SDS011;13016;52.162;21.034;2022-12-04T08:36:37;22.60;;;13.30;;
24995;SDS011;13016;52.162;21.034;2022-12-04T08:39:02;25.80;;;13.40;;
24995;SDS011;13016;52.162;21.034;2022-12-04T08:41:28;24.90;;;13.90;;
24995;SDS011;13016;52.162;21.034;2022-12-04T08:43:57;24.70;;;13.20;;
24995;SDS011;13016;52.162;21.034;2022-12-04T08:46:23;25.50;;;13.90;;
24995;SDS011;13016;52.162;21.034;2022-12-04T08:48:49;24.50;;;13.70;;
24995;SDS011;13016;52.162;21.034;2022-12-04T08:51:19;27.90;;;14.60;;
24995;SDS011;13016;52.162;21.034;2022-12-04T08:53:46;24.10;;;13.60;;
24995;SDS011;13016;52.162;21.034;2022-12-04T08:56:11;27.10;;;14.20;;
24995;SDS011;13016;52.162;21.034;2022-12-04T08:58:37;25.20;;;13.50;;
24995;SDS011;13016;52.162;21.034;2022-12-04T09:01:07;23.40;;;13.80;;
24995;SDS011;13016;52.162;21.034;2022-12-04T09:03:34;25.80;;;14.30;;
24995;SDS011;13016;52.162;21.034;2022-12-04T09:06:03;26.60;;;14.00;;
24995;SDS011;13016;52.162;21.034;2022-12-04T09:08:29;24.70;;;14.00;;
24995;SDS011;13016;52.162;21.034;2022-12-04T09:11:05;24.20;;;13.30;;
24995;SDS011;13016;52.162;21.034;2022-12-04T09:13:34;25.50;;;13.70;;
24995;SDS011;13016;52.162;21.034;2022-12-04T09:16:02;25.10;;;13.40;;
24995;SDS011;13016;52.162;21.034;2022-12-04T09:18:30;25.60;;;14.30;;
24995;SDS011;13016;52.162;21.034;2022-12-04T09:20:56;22.30;;;13.00;;
24995;SDS011;13016;52.162;21.034;2022-12-04T09:23:22;27.60;;;12.90;;
24995;SDS011;13016;52.162;21.034;2022-12-04T09:25:48;22.80;;;12.00;;
24995;SDS011;13016;52.162;21.034;2022-12-04T09:28:13;25.90;;;14.20;;
24995;SDS011;13016;52.162;21.034;2022-12-04T09:30:38;24.50;;;13.30;;
24995;SDS011;13016;52.162;21.034;2022-12-04T09:33:04;21.80;;;12.90;;
24995;SDS011;13016;52.162;21.034;2022-12-04T09:35:29;24.10;;;12.70;;
24995;SDS011;13016;52.162;21.034;2022-12-04T09:37:54;23.70;;;13.50;;
24995;SDS011;13016;52.162;21.034;2022-12-04T09:40:27;25.90;;;14.10;;
24995;SDS011;13016;52.162;21.034;2022-12-04T09:45:47;23.00;;;13.30;;
24995;SDS011;13016;52.162;21.034;2022-12-04T09:48:29;24.70;;;13.90;;
24995;SDS011;13016;52.162;21.034;2022-12-04T09:51:02;21.70;;;13.10;;
24995;SDS011;13016;52.162;21.034;2022-12-04T09:53:36;24.10;;;13.40;;
24995;SDS011;13016;52.162;21.034;2022-12-04T09:56:16;23.30;;;13.10;;
24995;SDS011;13016;52.162;21.034;2022-12-04T09:58:51;26.40;;;14.10;;
24995;SDS011;13016;52.162;21.034;2022-12-04T10:01:29;23.70;;;12.90;;
24995;SDS011;13016;52.162;21.034;2022-12-04T10:04:09;23.70;;;13.50;;
24995;SDS011;13016;52.162;21.034;2022-12-04T10:07:24;24.80;;;13.20;;
24995;SDS011;13016;52.162;21.034;2022-12-04T10:09:41;24.30;;;13.20;;
24995;SDS011;13016;52.162;21.034;2022-12-04T10:15:28;24.50;;;13.80;;
24995;SDS011;13016;52.162;21.034;2022-12-04T10:23:51;21.30;;;13.10;;
24995;SDS011;13016;52.162;21.034;2022-12-04T10:26:27;24.80;;;14.40;;
24995;SDS011;13016;52.162;21.034;2022-12-04T10:29:01;21.80;;;12.70;;
24995;SDS011;13016;52.162;21.034;2022-12-04T10:31:33;21.10;;;12.50;;
24995;SDS011;13016;52.162;21.034;2022-12-04T10:34:05;24.10;;;13.20;;
24995;SDS011;13016;52.162;21.034;2022-12-04T10:36:38;23.90;;;14.00;;
24995;SDS011;13016;52.162;21.034;2022-12-04T10:39:15;22.40;;;13.30;;
24995;SDS011;13016;52.162;21.034;2022-12-04T10:44:30;23.10;;;13.40;;
24995;SDS011;13016;52.162;21.034;2022-12-04T10:47:00;22.70;;;13.90;;
24995;SDS011;13016;52.162;21.034;2022-12-04T10:49:31;21.70;;;12.80;;
24995;SDS011;13016;52.162;21.034;2022-12-04T10:51:58;20.20;;;12.10;;
24995;SDS011;13016;52.162;21.034;2022-12-04T10:54:32;21.20;;;12.30;;
24995;SDS011;13016;52.162;21.034;2022-12-04T10:57:08;21.40;;;12.10;;
24995;SDS011;13016;52.162;21.034;2022-12-04T10:59:52;23.90;;;12.90;;
24995;SDS011;13016;52.162;21.034;2022-12-04T11:04:55;21.60;;;13.20;;
24995;SDS011;13016;52.162;21.034;2022-12-04T11:07:28;21.40;;;12.90;;
24995;SDS011;13016;52.162;21.034;2022-12-04T11:12:54;22.10;;;13.00;;
24995;SDS011;13016;52.162;21.034;2022-12-04T11:15:21;20.60;;;12.30;;
24995;SDS011;13016;52.162;21.034;2022-12-04T11:17:47;18.00;;;11.90;;
24995;SDS011;13016;52.162;21.034;2022-12-04T11:20:17;21.10;;;12.80;;
24995;SDS011;13016;52.162;21.034;2022-12-04T11:22:54;19.60;;;11.60;;
24995;SDS011;13016;52.162;21.034;2022-12-04T11:25:22;19.80;;;11.70;;
24995;SDS011;13016;52.162;21.034;2022-12-04T11:27:53;21.40;;;12.00;;
24995;SDS011;13016;52.162;21.034;2022-12-04T11:30:23;20.30;;;11.00;;
24995;SDS011;13016;52.162;21.034;2022-12-04T11:32:56;22.50;;;12.20;;
24995;SDS011;13016;52.162;21.034;2022-12-04T11:35:26;18.70;;;10.80;;
24995;SDS011;13016;52.162;21.034;2022-12-04T11:40:25;19.30;;;11.50;;
24995;SDS011;13016;52.162;21.034;2022-12-04T11:43:02;19.80;;;11.10;;
24995;SDS011;13016;52.162;21.034;2022-12-04T11:45:28;18.50;;;11.60;;
24995;SDS011;13016;52.162;21.034;2022-12-04T11:47:54;19.20;;;10.70;;
24995;SDS011;13016;52.162;21.034;2022-12-04T11:51:03;19.20;;;11.90;;
24995;SDS011;13016;52.162;21.034;2022-12-04T11:53:42;19.50;;;11.50;;
24995;SDS011;13016;52.162;21.034;2022-12-04T11:56:28;20.80;;;12.30;;
24995;SDS011;13016;52.162;21.034;2022-12-04T12:09:40;19.20;;;11.70;;
24995;SDS011;13016;52.162;21.034;2022-12-04T12:12:21;19.10;;;12.40;;
24995;SDS011;13016;52.162;21.034;2022-12-04T12:20:23;23.80;;;12.60;;
24995;SDS011;13016;52.162;21.034;2022-12-04T12:25:54;19.90;;;12.10;;
24995;SDS011;13016;52.162;21.034;2022-12-04T12:28:45;18.50;;;11.80;;
24995;SDS011;13016;52.162;21.034;2022-12-04T12:31:47;19.80;;;11.80;;
24995;SDS011;13016;52.162;21.034;2022-12-04T12:34:31;19.40;;;11.90;;
24995;SDS011;13016;52.162;21.034;2022-12-04T12:37:53;18.70;;;11.60;;
24995;SDS011;13016;52.162;21.034;2022-12-04T12:40:22;20.40;;;11.90;;
24995;SDS011;13016;52.162;21.034;2022-12-04T12:42:54;19.90;;;11.80;;
24995;SDS011;13016;52.162;21.034;2022-12-04T12:45:26;22.30;;;13.40;;
24995;SDS011;13016;52.162;21.034;2022-12-04T12:48:15;19.70;;;11.60;;
24995;SDS011;13016;52.162;21.034;2022-12-04T12:50:48;20.00;;;12.10;;
24995;SDS011;13016;52.162;21.034;2022-12-04T12:53:21;20.30;;;11.90;;
24995;SDS011;13016;52.162;21.034;2022-12-04T12:55:54;22.70;;;12.60;;
24995;SDS011;13016;52.162;21.034;2022-12-04T13:01:11;19.70;;;11.20;;
24995;SDS011;13016;52.162;21.034;2022-12-04T13:06:27;19.60;;;11.50;;
24995;SDS011;13016;52.162;21.034;2022-12-04T13:09:16;21.80;;;11.60;;
24995;SDS011;13016;52.162;21.034;2022-12-04T13:11:48;20.70;;;11.90;;
24995;SDS011;13016;52.162;21.034;2022-12-04T13:14:16;24.30;;;12.70;;
24995;SDS011;13016;52.162;21.034;2022-12-04T13:16:43;26.60;;;15.30;;
24995;SDS011;13016;52.162;21.034;2022-12-04T13:19:25;23.90;;;12.70;;
24995;SDS011;13016;52.162;21.034;2022-12-04T13:29:41;22.20;;;13.00;;
24995;SDS011;13016;52.162;21.034;2022-12-04T13:35:21;22.20;;;12.00;;
24995;SDS011;13016;52.162;21.034;2022-12-04T13:38:14;20.30;;;12.00;;
24995;SDS011;13016;52.162;21.034;2022-12-04T13:40:43;22.90;;;13.70;;
24995;SDS011;13016;52.162;21.034;2022-12-04T13:46:00;26.30;;;14.20;;
24995;SDS011;13016;52.162;21.034;2022-12-04T13:48:31;25.10;;;14.30;;
24995;SDS011;13016;52.162;21.034;2022-12-04T13:53:38;24.40;;;14.10;;
24995;SDS011;13016;52.162;21.034;2022-12-04T13:56:05;28.10;;;14.20;;
24995;SDS011;13016;52.162;21.034;2022-12-04T13:58:47;24.50;;;13.20;;
24995;SDS011;13016;52.162;21.034;2022-12-04T14:01:23;23.30;;;14.00;;
24995;SDS011;13016;52.162;21.034;2022-12-04T14:03:53;25.00;;;14.60;;
24995;SDS011;13016;52.162;21.034;2022-12-04T14:06:30;22.30;;;13.20;;
24995;SDS011;13016;52.162;21.034;2022-12-04T14:09:02;24.20;;;13.50;;
24995;SDS011;13016;52.162;21.034;2022-12-04T14:11:31;23.50;;;13.70;;
24995;SDS011;13016;52.162;21.034;2022-12-04T14:17:02;21.00;;;12.00;;
24995;SDS011;13016;52.162;21.034;2022-12-04T14:22:00;20.90;;;12.20;;
24995;SDS011;13016;52.162;21.034;2022-12-04T14:24:36;21.90;;;12.30;;
24995;SDS011;13016;52.162;21.034;2022-12-04T14:27:49;21.10;;;13.00;;
24995;SDS011;13016;52.162;21.034;2022-12-04T14:30:22;22.10;;;12.90;;
24995;SDS011;13016;52.162;21.034;2022-12-04T14:32:53;20.60;;;12.20;;
24995;SDS011;13016;52.162;21.034;2022-12-04T14:35:42;20.00;;;12.30;;
24995;SDS011;13016;52.162;21.034;2022-12-04T14:38:19;25.70;;;12.90;;
24995;SDS011;13016;52.162;21.034;2022-12-04T14:40:47;23.00;;;13.30;;
24995;SDS011;13016;52.162;21.034;2022-12-04T14:43:18;19.20;;;12.10;;
24995;SDS011;13016;52.162;21.034;2022-12-04T14:54:04;21.40;;;12.20;;
24995;SDS011;13016;52.162;21.034;2022-12-04T15:00:00;20.40;;;12.00;;
24995;SDS011;13016;52.162;21.034;2022-12-04T15:02:37;19.60;;;12.00;;
24995;SDS011;13016;52.162;21.034;2022-12-04T15:05:08;20.30;;;12.20;;
24995;SDS011;13016;52.162;21.034;2022-12-04T15:07:36;20.00;;;11.70;;
24995;SDS011;13016;52.162;21.034;2022-12-04T15:10:16;21.00;;;12.20;;
24995;SDS011;13016;52.162;21.034;2022-12-04T15:20:26;20.10;;;13.00;;
24995;SDS011;13016;52.162;21.034;2022-12-04T15:22:55;19.90;;;12.00;;
24995;SDS011;13016;52.162;21.034;2022-12-04T15:25:22;19.60;;;11.50;;
24995;SDS011;13016;52.162;21.034;2022-12-04T15:27:51;18.50;;;12.40;;
24995;SDS011;13016;52.162;21.034;2022-12-04T15:30:25;20.10;;;12.20;;
24995;SDS011;13016;52.162;21.034;2022-12-04T15:32:53;25.50;;;16.30;;
24995;SDS011;13016;52.162;21.034;2022-12-04T15:35:24;22.70;;;12.30;;
24995;SDS011;13016;52.162;21.034;2022-12-04T15:38:13;21.30;;;13.80;;
24995;SDS011;13016;52.162;21.034;2022-12-04T15:40:48;18.80;;;11.50;;
24995;SDS011;13016;52.162;21.034;2022-12-04T15:43:25;23.50;;;12.90;;
24995;SDS011;13016;52.162;21.034;2022-12-04T15:45:52;18.70;;;12.30;;
24995;SDS011;13016;52.162;21.034;2022-12-04T15:48:36;19.40;;;12.90;;
24995;SDS011;13016;52.162;21.034;2022-12-04T15:51:02;39.70;;;19.20;;
24995;SDS011;13016;52.162;21.034;2022-12-04T15:53:35;20.60;;;12.30;;
24995;SDS011;13016;52.162;21.034;2022-12-04T15:56:03;22.10;;;13.10;;
24995;SDS011;13016;52.162;21.034;2022-12-04T15:58:34;21.90;;;12.10;;
24995;SDS011;13016;52.162;21.034;2022-12-04T16:01:03;19.50;;;11.80;;
24995;SDS011;13016;52.162;21.034;2022-12-04T16:08:55;19.90;;;13.10;;
24995;SDS011;13016;52.162;21.034;2022-12-04T16:11:41;18.50;;;11.70;;
24995;SDS011;13016;52.162;21.034;2022-12-04T16:16:32;19.00;;;11.80;;
24995;SDS011;13016;52.162;21.034;2022-12-04T16:19:04;16.00;;;10.80;;
24995;SDS011;13016;52.162;21.034;2022-12-04T16:21:33;17.60;;;12.00;;
24995;SDS011;13016;52.162;21.034;2022-12-04T16:24:03;17.90;;;11.90;;
24995;SDS011;13016;52.162;21.034;2022-12-04T16:26:29;20.00;;;12.80;;
24995;SDS011;13016;52.162;21.034;2022-12-04T16:28:55;19.80;;;12.50;;